createdAt,value
2019-03-01T00:01:30.286Z,0.64
2019-03-01T00:04:21.811Z,0.63
2019-03-01T00:07:31.632Z,0.63
2019-03-01T00:10:26.823Z,0.64
2019-03-01T00:13:40.850Z,0.63
2019-03-01T00:16:49.040Z,0.51
2019-03-01T00:19:57.226Z,0.47
2019-03-01T00:22:52.301Z,0.49
2019-03-01T00:25:46.368Z,0.52
2019-03-01T00:28:38.718Z,0.54
2019-03-01T00:31:34.903Z,0.55
2019-03-01T00:34:43.081Z,0.58
2019-03-01T00:37:51.304Z,-0.04
2019-03-01T00:40:59.497Z,0.60
2019-03-01T00:44:07.684Z,0.59
2019-03-01T00:46:37.797Z,0.61
2019-03-01T00:49:07.920Z,0.62
2019-03-01T00:54:32.620Z,0.70
2019-03-01T00:57:02.746Z,0.74
2019-03-01T00:59:32.874Z,0.80
2019-03-01T01:05:06.914Z,0.92
2019-03-01T01:07:49.043Z,0.99
2019-03-01T01:10:19.153Z,1.03
2019-03-01T01:12:49.252Z,1.06
2019-03-01T01:15:19.411Z,1.09
2019-03-01T01:17:51.177Z,1.10
2019-03-01T01:20:21.292Z,1.13
2019-03-01T01:22:51.392Z,1.16
2019-03-01T01:25:21.533Z,1.21
2019-03-01T01:27:51.630Z,1.24
2019-03-01T01:30:21.753Z,1.23
2019-03-01T01:32:51.890Z,1.26
2019-03-01T01:35:21.999Z,1.24
2019-03-01T01:40:41.183Z,1.18
2019-03-01T01:43:11.278Z,1.13
2019-03-01T01:46:00.426Z,1.10
2019-03-01T01:48:42.009Z,1.00
2019-03-01T01:51:12.108Z,0.97
2019-03-01T01:53:42.218Z,0.82
2019-03-01T01:59:14.550Z,0.60
2019-03-01T02:01:44.665Z,0.54
2019-03-01T02:04:15.067Z,0.64
2019-03-01T02:06:45.171Z,0.71
2019-03-01T02:09:34.372Z,0.65
2019-03-01T02:12:23.478Z,0.63
2019-03-01T02:14:53.591Z,0.64
2019-03-01T02:17:23.712Z,0.55
2019-03-01T02:19:53.834Z,0.54
2019-03-01T02:22:23.944Z,0.38
2019-03-01T02:27:49.102Z,0.26
2019-03-01T02:30:21.386Z,0.33
2019-03-01T02:32:51.869Z,0.20
2019-03-01T02:35:23.669Z,0.20
2019-03-01T02:37:53.745Z,0.17
2019-03-01T02:40:23.895Z,0.25
2019-03-01T02:42:54.036Z,0.19
2019-03-01T02:45:25.869Z,0.17
2019-03-01T02:47:55.977Z,0.23
2019-03-01T02:50:45.141Z,0.17
2019-03-01T02:53:15.253Z,0.25
2019-03-01T02:55:45.372Z,0.25
2019-03-01T02:58:15.486Z,0.40
2019-03-01T03:01:04.600Z,0.37
2019-03-01T03:03:35.255Z,0.49
2019-03-01T03:06:24.584Z,0.62
2019-03-01T03:08:55.124Z,0.71
2019-03-01T03:11:25.687Z,0.78
2019-03-01T03:13:56.222Z,0.87
2019-03-01T03:16:26.838Z,0.97
2019-03-01T03:18:57.469Z,1.02
2019-03-01T03:21:28.109Z,1.12
2019-03-01T03:26:40.295Z,1.18
2019-03-01T03:29:10.382Z,1.17
2019-03-01T03:31:40.549Z,1.13
2019-03-01T03:34:10.859Z,1.15
2019-03-01T03:37:01.529Z,1.17
2019-03-01T03:39:50.625Z,1.14
2019-03-01T03:42:20.770Z,1.12
2019-03-01T03:44:53.080Z,1.12
2019-03-01T03:47:23.743Z,1.10
2019-03-01T03:49:54.373Z,1.09
2019-03-01T03:52:24.926Z,1.10
2019-03-01T03:55:00.445Z,1.08
2019-03-01T04:00:13.560Z,1.05
2019-03-01T04:02:43.661Z,1.03
2019-03-01T04:05:13.845Z,1.03
2019-03-01T04:07:43.966Z,1.03
2019-03-01T04:13:08.726Z,0.98
2019-03-01T04:15:38.858Z,0.95
2019-03-01T04:18:08.951Z,0.90
2019-03-01T04:20:39.067Z,0.38
2019-03-01T04:23:09.177Z,0.91
2019-03-01T04:25:39.276Z,0.92
2019-03-01T04:28:09.357Z,0.92
2019-03-01T04:30:39.480Z,0.92
2019-03-01T04:33:09.568Z,0.91
2019-03-01T04:35:39.693Z,0.91
2019-03-01T04:38:09.828Z,0.92
2019-03-01T04:40:39.933Z,0.95
2019-03-01T04:45:59.123Z,0.98
2019-03-01T04:48:48.151Z,0.96
2019-03-01T04:51:18.285Z,0.98
2019-03-01T04:53:48.484Z,1.00
2019-03-01T04:56:18.584Z,1.05
2019-03-01T05:01:37.822Z,1.12
2019-03-01T05:04:07.932Z,1.15
2019-03-01T05:09:24.778Z,1.17
2019-03-01T05:12:15.638Z,1.18
2019-03-01T05:14:48.484Z,1.13
2019-03-01T05:20:57.128Z,1.15
2019-03-01T05:23:30.059Z,1.24
2019-03-01T05:26:01.586Z,1.26
2019-03-01T05:34:03.523Z,1.16
2019-03-01T05:36:33.686Z,1.16
2019-03-01T05:39:26.252Z,1.14
2019-03-01T05:41:56.375Z,1.14
2019-03-01T05:44:26.500Z,1.12
2019-03-01T05:46:56.745Z,1.10
2019-03-01T05:49:26.876Z,1.10
2019-03-01T05:51:57.112Z,1.10
2019-03-01T05:54:27.280Z,1.08
2019-03-01T05:56:57.409Z,1.07
2019-03-01T05:59:29.064Z,1.06
2019-03-01T06:02:37.327Z,1.02
2019-03-01T06:09:01.801Z,1.02
2019-03-01T06:11:39.371Z,0.97
2019-03-01T06:14:47.608Z,0.98
2019-03-01T06:17:55.857Z,0.96
2019-03-01T06:21:05.689Z,0.94
2019-03-01T06:30:35.149Z,0.94
2019-03-01T06:33:43.441Z,0.98
2019-03-01T06:36:21.122Z,1.01
2019-03-01T06:39:14.391Z,1.07
2019-03-01T06:42:28.463Z,1.08
2019-03-01T06:45:22.291Z,1.14
2019-03-01T06:47:52.840Z,1.16
2019-03-01T06:50:31.664Z,1.22
2019-03-01T06:53:02.198Z,1.22
2019-03-01T06:56:10.417Z,1.26
2019-03-01T06:58:52.647Z,1.28
2019-03-01T07:01:41.684Z,1.31
2019-03-01T07:04:14.969Z,1.34
2019-03-01T07:06:45.075Z,1.40
2019-03-01T07:09:27.033Z,1.42
2019-03-01T07:11:57.213Z,1.51
2019-03-01T07:14:27.387Z,1.53
2019-03-01T07:16:57.507Z,1.65
2019-03-01T07:19:27.613Z,1.58
2019-03-01T07:21:57.719Z,1.66
2019-03-01T07:24:39.830Z,1.58
2019-03-01T07:27:12.229Z,1.51
2019-03-01T07:29:47.212Z,1.33
2019-03-01T07:35:31.100Z,1.18
2019-03-01T07:38:01.205Z,0.82
2019-03-01T07:40:31.298Z,0.84
2019-03-01T07:43:01.437Z,0.82
2019-03-01T07:45:31.607Z,0.93
2019-03-01T07:48:01.716Z,0.97
2019-03-01T07:50:31.800Z,0.85
2019-03-01T07:53:03.801Z,0.83
2019-03-01T07:55:46.817Z,0.89
2019-03-01T07:58:16.928Z,0.93
2019-03-01T08:00:53.153Z,0.89
2019-03-01T08:06:05.966Z,0.90
2019-03-01T08:11:50.200Z,1.03
2019-03-01T08:14:39.297Z,1.15
2019-03-01T08:17:09.502Z,1.29
2019-03-01T08:19:39.718Z,1.35
2019-03-01T08:22:09.836Z,1.36
2019-03-01T08:24:42.780Z,1.50
2019-03-01T08:30:10.545Z,1.60
2019-03-01T08:32:39.657Z,1.74
2019-03-01T08:35:11.374Z,1.88
2019-03-01T08:37:41.496Z,1.86
2019-03-01T08:40:14.802Z,1.52
2019-03-01T08:43:11.755Z,1.55
2019-03-01T08:45:42.328Z,1.64
2019-03-01T08:48:12.453Z,1.59
2019-03-01T08:50:42.637Z,1.78
2019-03-01T08:53:15.152Z,1.94
2019-03-01T08:55:59.452Z,2.19
2019-03-01T08:58:29.556Z,2.36
2019-03-01T09:01:03.139Z,2.30
2019-03-01T09:03:50.885Z,2.27
2019-03-01T09:06:20.984Z,2.16
2019-03-01T09:08:51.135Z,1.89
2019-03-01T09:11:27.637Z,1.98
2019-03-01T09:13:58.275Z,2.09
2019-03-01T09:16:47.965Z,2.14
2019-03-01T09:19:18.620Z,2.21
2019-03-01T09:22:08.160Z,2.27
2019-03-01T09:24:39.228Z,2.31
2019-03-01T09:27:10.982Z,2.08
2019-03-01T09:29:42.161Z,1.83
2019-03-01T09:32:42.078Z,1.68
2019-03-01T09:35:32.807Z,1.64
2019-03-01T09:38:28.526Z,1.71
2019-03-01T09:41:01.214Z,1.78
2019-03-01T09:43:36.563Z,1.79
2019-03-01T09:46:08.584Z,1.82
2019-03-01T09:48:39.475Z,1.93
2019-03-01T09:51:10.689Z,2.17
2019-03-01T09:54:01.018Z,2.30
2019-03-01T09:56:31.112Z,2.28
2019-03-01T09:59:01.213Z,2.49
2019-03-01T10:04:44.529Z,2.75
2019-03-01T10:07:14.686Z,2.78
2019-03-01T10:09:46.397Z,2.75
2019-03-01T10:12:16.505Z,2.90
2019-03-01T10:14:46.621Z,2.95
2019-03-01T10:17:16.739Z,2.97
2019-03-01T10:19:46.842Z,3.08
2019-03-01T10:22:16.999Z,3.16
2019-03-01T10:24:47.093Z,2.96
2019-03-01T10:27:17.189Z,2.75
2019-03-01T10:32:27.717Z,2.59
2019-03-01T10:34:57.810Z,2.53
2019-03-01T10:37:27.917Z,2.43
2019-03-01T10:39:58.067Z,2.57
2019-03-01T10:42:28.184Z,3.01
2019-03-01T10:44:58.294Z,3.26
2019-03-01T10:47:28.386Z,3.37
2019-03-01T10:49:58.483Z,3.48
2019-03-01T10:52:28.577Z,3.43
2019-03-01T10:54:58.677Z,3.56
2019-03-01T10:57:28.817Z,3.76
2019-03-01T10:59:58.901Z,3.86
2019-03-01T11:02:29.003Z,3.91
2019-03-01T11:04:59.100Z,3.97
2019-03-01T11:07:29.232Z,4.06
2019-03-01T11:09:59.343Z,3.61
2019-03-01T11:12:29.462Z,3.20
2019-03-01T11:14:59.546Z,3.37
2019-03-01T11:17:29.655Z,3.46
2019-03-01T11:19:59.825Z,3.49
2019-03-01T11:22:29.920Z,3.49
2019-03-01T11:25:00.035Z,3.54
2019-03-01T11:27:30.147Z,3.69
2019-03-01T11:30:00.312Z,3.57
2019-03-01T11:32:30.526Z,3.51
2019-03-01T11:35:00.624Z,3.45
2019-03-01T11:37:30.749Z,3.21
2019-03-01T11:40:00.884Z,3.11
2019-03-01T11:42:32.601Z,3.25
2019-03-01T11:45:02.753Z,3.36
2019-03-01T11:47:32.850Z,3.49
2019-03-01T11:50:02.957Z,3.75
2019-03-01T11:52:33.135Z,3.86
2019-03-01T11:55:16.477Z,4.02
2019-03-01T11:57:46.579Z,4.00
2019-03-01T12:00:19.158Z,3.97
2019-03-01T12:02:50.195Z,4.14
2019-03-01T12:05:20.360Z,4.26
2019-03-01T12:08:01.333Z,4.34
2019-03-01T12:10:32.428Z,4.43
2019-03-01T12:13:02.575Z,4.74
2019-03-01T12:15:34.327Z,4.89
2019-03-01T12:18:04.451Z,4.98
2019-03-01T12:20:34.561Z,5.03
2019-03-01T12:23:04.659Z,5.12
2019-03-01T12:25:34.756Z,5.25
2019-03-01T12:28:04.889Z,5.49
2019-03-01T12:30:35.008Z,5.59
2019-03-01T12:33:05.125Z,5.39
2019-03-01T12:35:35.213Z,5.20
2019-03-01T12:38:24.406Z,5.34
2019-03-01T12:40:54.525Z,5.61
2019-03-01T12:43:24.626Z,5.71
2019-03-01T12:45:54.727Z,5.70
2019-03-01T12:48:24.924Z,5.73
2019-03-01T12:50:55.007Z,5.78
2019-03-01T12:53:25.189Z,5.93
2019-03-01T12:55:55.298Z,5.84
2019-03-01T13:01:07.176Z,6.27
2019-03-01T13:03:50.337Z,6.27
2019-03-01T13:06:39.948Z,6.50
2019-03-01T13:09:36.312Z,6.62
2019-03-01T13:12:06.409Z,6.88
2019-03-01T13:14:39.235Z,7.07
2019-03-01T13:17:13.743Z,7.11
2019-03-01T13:22:47.150Z,7.13
2019-03-01T13:25:17.325Z,7.16
2019-03-01T13:30:49.449Z,6.84
2019-03-01T13:33:19.671Z,6.82
2019-03-01T13:35:49.793Z,7.04
2019-03-01T13:41:27.664Z,7.27
2019-03-01T13:44:20.599Z,7.37
2019-03-01T13:47:10.453Z,7.25
2019-03-01T13:55:46.795Z,7.20
2019-03-01T14:11:03.994Z,6.36
2019-03-01T14:13:36.988Z,6.34
2019-03-01T14:16:28.308Z,6.47
2019-03-01T14:19:23.382Z,6.46
2019-03-01T14:22:05.286Z,6.18
2019-03-01T14:24:54.706Z,5.93
2019-03-01T14:27:37.978Z,5.84
2019-03-01T14:30:10.715Z,5.89
2019-03-01T14:32:41.841Z,5.82
2019-03-01T14:35:13.053Z,5.99
2019-03-01T14:37:43.376Z,6.06
2019-03-01T14:40:14.052Z,5.93
2019-03-01T14:42:47.455Z,5.76
2019-03-01T14:45:18.607Z,5.81
2019-03-01T14:47:49.509Z,5.84
2019-03-01T14:53:50.422Z,5.80
2019-03-01T14:56:34.846Z,5.81
2019-03-01T14:59:25.634Z,5.78
2019-03-01T15:02:06.980Z,5.77
2019-03-01T15:04:37.136Z,5.67
2019-03-01T15:07:07.234Z,5.49
2019-03-01T15:09:37.329Z,5.33
2019-03-01T15:17:57.073Z,5.25
2019-03-01T15:20:45.847Z,5.19
2019-03-01T15:23:20.734Z,5.08
2019-03-01T15:25:49.500Z,5.05
2019-03-01T15:28:19.687Z,4.91
2019-03-01T15:30:49.781Z,4.90
2019-03-01T15:33:20.021Z,4.82
2019-03-01T15:35:50.134Z,4.67
2019-03-01T15:38:20.270Z,4.51
2019-03-01T15:40:50.403Z,4.53
2019-03-01T15:43:20.551Z,4.52
2019-03-01T15:45:50.663Z,4.50
2019-03-01T15:51:23.319Z,4.43
2019-03-01T15:54:01.053Z,4.36
2019-03-01T15:56:39.531Z,4.31
2019-03-01T15:59:16.303Z,4.28
2019-03-01T16:01:47.103Z,4.25
2019-03-01T16:04:24.235Z,4.22
2019-03-01T16:06:56.292Z,4.16
2019-03-01T16:09:46.457Z,4.09
2019-03-01T16:15:10.455Z,3.91
2019-03-01T16:18:01.904Z,3.77
2019-03-01T16:20:32.296Z,3.65
2019-03-01T16:23:22.133Z,3.51
2019-03-01T16:25:55.020Z,3.40
2019-03-01T16:28:43.161Z,3.28
2019-03-01T16:31:13.477Z,3.11
2019-03-01T16:33:43.956Z,2.99
2019-03-01T16:36:23.447Z,2.87
2019-03-01T16:38:54.030Z,2.74
2019-03-01T16:41:24.181Z,2.63
2019-03-01T16:47:07.701Z,2.37
2019-03-01T16:49:37.891Z,2.27
2019-03-01T16:52:08.002Z,2.17
2019-03-01T16:54:38.314Z,2.09
2019-03-01T16:57:11.899Z,2.03
2019-03-01T16:59:46.070Z,1.96
2019-03-01T17:02:16.437Z,1.88
2019-03-01T17:04:48.830Z,1.83
2019-03-01T17:07:21.507Z,1.78
2019-03-01T17:09:56.178Z,1.75
2019-03-01T17:12:26.412Z,1.67
2019-03-01T17:15:01.329Z,1.58
2019-03-01T17:17:36.824Z,1.51
2019-03-01T17:22:59.722Z,1.46
2019-03-01T17:25:32.015Z,1.37
2019-03-01T17:28:26.618Z,1.29
2019-03-01T17:33:53.485Z,1.16
2019-03-01T17:36:23.590Z,1.09
2019-03-01T17:38:53.722Z,1.05
2019-03-01T17:41:23.889Z,1.00
2019-03-01T17:47:20.821Z,0.86
2019-03-01T17:52:34.600Z,0.77
2019-03-01T17:55:04.846Z,0.69
2019-03-01T17:57:34.953Z,0.65
2019-03-01T18:03:14.136Z,0.50
2019-03-01T18:05:44.262Z,0.44
2019-03-01T18:08:14.378Z,0.40
2019-03-01T18:10:44.491Z,0.35
2019-03-01T18:13:15.134Z,0.34
2019-03-01T18:15:51.627Z,0.33
2019-03-01T18:18:21.732Z,0.23
2019-03-01T18:20:51.834Z,0.14
2019-03-01T18:23:21.943Z,0.06
2019-03-01T18:25:53.786Z,0.02
2019-03-01T18:28:24.934Z,-0.02
2019-03-01T18:30:56.393Z,-0.08
2019-03-01T18:33:27.577Z,-0.14
2019-03-01T18:35:57.738Z,-0.19
2019-03-01T18:38:31.352Z,-0.22
2019-03-01T18:41:18.965Z,-0.23
2019-03-01T18:43:50.181Z,-0.25
2019-03-01T18:46:40.005Z,-0.29
2019-03-01T18:49:10.228Z,-0.92
2019-03-01T18:51:43.381Z,-0.35
2019-03-01T18:54:18.251Z,-0.37
2019-03-01T18:56:49.267Z,-0.41
2019-03-01T18:59:21.618Z,-0.46
2019-03-01T19:01:57.937Z,-0.49
2019-03-01T19:04:34.749Z,-0.46
2019-03-01T19:07:05.548Z,-0.48
2019-03-01T19:09:36.490Z,-0.47
2019-03-01T19:12:09.502Z,-0.50
2019-03-01T19:14:58.284Z,-0.54
2019-03-01T19:17:28.449Z,-0.60
2019-03-01T19:20:01.880Z,-0.58
2019-03-01T19:22:50.214Z,-0.57
2019-03-01T19:25:21.749Z,-0.59
2019-03-01T19:28:18.259Z,-0.59
2019-03-01T19:33:41.521Z,-0.76
2019-03-01T19:36:16.219Z,-0.84
2019-03-01T19:38:46.519Z,-0.91
2019-03-01T19:41:37.248Z,-0.96
2019-03-01T19:44:07.497Z,-1.03
2019-03-01T19:46:37.592Z,-1.06
2019-03-01T19:49:09.424Z,-1.07
2019-03-01T19:51:45.100Z,-1.10
2019-03-01T19:54:15.328Z,-1.12
2019-03-01T19:56:45.442Z,-1.16
2019-03-01T19:59:15.588Z,-1.19
2019-03-01T20:01:45.726Z,-1.21
2019-03-01T20:04:17.797Z,-1.23
2019-03-01T20:07:06.922Z,-1.26
2019-03-01T20:09:39.733Z,-1.29
2019-03-01T20:12:09.048Z,-1.28
2019-03-01T20:14:39.209Z,-1.30
2019-03-01T20:17:12.819Z,-1.32
2019-03-01T20:19:44.828Z,-1.35
2019-03-01T20:22:18.614Z,-1.42
2019-03-01T20:24:49.688Z,-1.50
2019-03-01T20:28:04.601Z,-1.53
2019-03-01T20:30:35.509Z,-1.56
2019-03-01T20:33:07.328Z,-1.61
2019-03-01T20:35:37.457Z,-1.64
2019-03-01T20:38:12.733Z,-2.26
2019-03-01T20:40:46.145Z,-1.69
2019-03-01T20:43:37.931Z,-1.70
2019-03-01T20:46:13.936Z,-1.67
2019-03-01T20:49:00.646Z,-1.64
2019-03-01T20:51:29.146Z,-1.64
2019-03-01T20:54:01.007Z,-1.70
2019-03-01T20:56:31.361Z,-1.75
2019-03-01T20:59:01.573Z,-1.79
2019-03-01T21:01:33.727Z,-1.83
2019-03-01T21:04:04.876Z,-1.85
2019-03-01T21:06:37.332Z,-1.89
2019-03-01T21:09:10.787Z,-1.95
2019-03-01T21:11:42.574Z,-1.98
2019-03-01T21:14:12.695Z,-2.05
2019-03-01T21:16:44.840Z,-2.07
2019-03-01T21:19:14.674Z,-2.08
2019-03-01T21:21:44.771Z,-2.06
2019-03-01T21:24:14.859Z,-2.06
2019-03-01T21:26:47.917Z,-2.07
2019-03-01T21:29:16.813Z,-2.08
2019-03-01T21:31:47.015Z,-2.11
2019-03-01T21:34:17.098Z,-2.10
2019-03-01T21:36:47.209Z,-2.09
2019-03-01T21:39:20.662Z,-2.09
2019-03-01T21:41:51.264Z,-2.12
2019-03-01T21:44:21.515Z,-2.14
2019-03-01T21:46:51.630Z,-2.14
2019-03-01T21:49:21.853Z,-2.12
2019-03-01T21:51:55.087Z,-2.11
2019-03-01T21:54:23.795Z,-2.10
2019-03-01T21:56:56.781Z,-2.13
2019-03-01T21:59:25.920Z,-2.13
2019-03-01T22:01:56.046Z,-2.16
2019-03-01T22:04:26.166Z,-2.18
2019-03-01T22:07:01.784Z,-2.16
2019-03-01T22:09:28.394Z,-2.15
2019-03-01T22:11:58.734Z,-2.14
2019-03-01T22:14:28.839Z,-2.11
2019-03-01T22:16:59.007Z,-2.09
2019-03-01T22:19:40.847Z,-2.16
2019-03-01T22:22:10.984Z,-2.24
2019-03-01T22:24:41.137Z,-2.29
2019-03-01T22:27:31.754Z,-2.33
2019-03-01T22:32:45.479Z,-2.50
2019-03-01T22:35:21.144Z,-2.55
2019-03-01T22:37:52.954Z,-2.60
2019-03-01T22:40:24.049Z,-2.58
2019-03-01T22:43:04.538Z,-2.57
2019-03-01T22:48:47.023Z,-2.66
2019-03-01T22:51:18.829Z,-2.67
2019-03-01T22:53:49.059Z,-2.70
2019-03-01T22:56:19.383Z,-2.75
2019-03-01T22:58:49.609Z,-2.74
2019-03-01T23:01:43.251Z,-2.79
2019-03-01T23:04:13.527Z,-2.79
2019-03-01T23:07:06.886Z,-2.86
2019-03-01T23:09:37.186Z,-2.89
2019-03-01T23:12:08.133Z,-2.91
2019-03-01T23:14:45.027Z,-2.90
2019-03-01T23:17:15.136Z,-2.86
2019-03-01T23:19:47.691Z,-2.81
2019-03-01T23:22:33.005Z,-2.77
2019-03-01T23:25:03.205Z,-2.75
2019-03-01T23:27:33.764Z,-2.69
2019-03-01T23:33:06.082Z,-2.58
2019-03-01T23:35:36.297Z,-2.53
2019-03-01T23:38:06.449Z,-2.51
2019-03-01T23:40:36.800Z,-2.50
2019-03-01T23:43:17.750Z,-2.54
2019-03-01T23:45:49.921Z,-2.52
2019-03-01T23:48:38.768Z,-2.56
2019-03-01T23:51:10.552Z,-2.60
2019-03-01T23:53:59.827Z,-2.62
2019-03-01T23:56:31.558Z,-2.62
2019-03-01T23:59:01.705Z,-2.60
